Time;durP1;ratioP1;P1;durP2;ratioP2;P2;SDS_P1;SDS_P2;PMS_P1;PMS_P2;Temp;Humidity;BMP_temperature;BMP_pressure;BME280_temperature;BME280_humidity;BME280_pressure;Samples;Min_cycle;Max_cycle;Signal;HPM_P1;HPM_P2
2021/12/21 00:01:51;;;;;;;;;36.00;34.25;;;;;;;;5059578;28;48161;-77
2021/12/21 00:04:16;;;;;;;;;38.50;33.75;;;;;;;;5069580;28;45283;-76
2021/12/21 00:06:43;;;;;;;;;37.50;32.50;;;;;;;;5062607;28;45567;-77
2021/12/21 00:09:08;;;;;;;;;31.00;30.75;;;;;;;;5068005;28;45289;-77
2021/12/21 00:11:34;;;;;;;;;32.00;29.25;;;;;;;;5071086;28;46804;-76
2021/12/21 00:14:56;;;;;;;;;29.25;28.50;;;;;;;;5072168;28;45218;-76
2021/12/21 00:20:27;;;;;;;;;30.25;29.00;;;;;;;;5072332;28;45285;-76
2021/12/21 00:22:57;;;;;;;;;28.75;26.50;;;;;;;;5058491;28;45964;-76
2021/12/21 00:25:03;;;;;;;;;31.25;26.75;;;;;;;;5070951;28;45822;-75
2021/12/21 00:27:28;;;;;;;;;31.50;29.25;;;;;;;;5067999;28;45575;-76
2021/12/21 00:29:53;;;;;;;;;27.50;26.00;;;;;;;;5061255;28;45879;-76
2021/12/21 00:32:18;;;;;;;;;33.50;29.50;;;;;;;;5069789;28;45305;-77
2021/12/21 00:34:44;;;;;;;;;27.50;24.50;;;;;;;;5059240;28;45786;-76
2021/12/21 00:37:09;;;;;;;;;28.00;26.75;;;;;;;;5069641;27;45251;-76
2021/12/21 00:39:34;;;;;;;;;27.50;24.75;;;;;;;;5069575;28;45682;-76
2021/12/21 00:42:01;;;;;;;;;30.25;27.25;;;;;;;;5069643;28;46156;-76
2021/12/21 00:44:26;;;;;;;;;29.25;25.25;;;;;;;;5070038;28;45433;-77
2021/12/21 00:46:51;;;;;;;;;25.50;23.00;;;;;;;;5073836;28;45945;-76
2021/12/21 00:49:17;;;;;;;;;29.75;25.00;;;;;;;;5060424;28;46068;-77
2021/12/21 00:51:44;;;;;;;;;25.00;23.25;;;;;;;;5069776;28;45712;-77
2021/12/21 00:54:10;;;;;;;;;32.25;27.75;;;;;;;;5070431;28;45391;-77
2021/12/21 00:56:37;;;;;;;;;27.75;23.75;;;;;;;;5071362;28;45165;-77
2021/12/21 00:59:03;;;;;;;;;23.00;20.50;;;;;;;;5071199;28;45367;-77
2021/12/21 01:01:28;;;;;;;;;27.50;24.50;;;;;;;;5061695;28;45331;-76
2021/12/21 01:03:55;;;;;;;;;24.00;21.50;;;;;;;;5058617;28;45348;-77
2021/12/21 01:06:27;;;;;;;;;29.25;27.00;;;;;;;;5049912;28;45366;-76
2021/12/21 01:11:37;;;;;;;;;16.75;13.75;;;;;;;;5069115;28;45395;-77
2021/12/21 01:21:36;;;;;;;;;23.75;22.50;;;;;;;;5070943;28;45435;-76
2021/12/21 01:27:00;;;;;;;;;24.00;22.75;;;;;;;;5070834;28;45363;-76
2021/12/21 01:29:51;;;;;;;;;27.50;23.50;;;;;;;;5068122;28;45624;-77
2021/12/21 01:32:31;;;;;;;;;26.75;23.75;;;;;;;;5067681;28;45307;-77
2021/12/21 01:35:06;;;;;;;;;26.75;24.25;;;;;;;;5061630;28;45327;-76
2021/12/21 01:38:00;;;;;;;;;24.75;24.75;;;;;;;;5062330;28;45335;-77
2021/12/21 01:40:47;;;;;;;;;8.75;7.00;;;;;;;;5068616;28;45770;-77
2021/12/21 01:50:56;;;;;;;;;29.25;27.00;;;;;;;;5070680;28;45484;-77
2021/12/21 01:53:22;;;;;;;;;21.25;20.75;;;;;;;;5060566;28;46061;-77
2021/12/21 01:55:47;;;;;;;;;23.75;21.25;;;;;;;;5061700;28;45277;-77
2021/12/21 01:58:13;;;;;;;;;21.75;21.25;;;;;;;;5069793;28;45464;-77
2021/12/21 02:00:38;;;;;;;;;26.00;25.50;;;;;;;;5069106;28;45471;-77
2021/12/21 02:03:04;;;;;;;;;23.75;23.25;;;;;;;;5057699;28;47023;-77
2021/12/21 02:05:29;;;;;;;;;27.00;23.25;;;;;;;;5061773;28;45527;-77
2021/12/21 02:07:54;;;;;;;;;24.75;21.00;;;;;;;;5068197;28;45241;-77
2021/12/21 02:10:20;;;;;;;;;30.75;28.25;;;;;;;;5070287;28;45351;-77
2021/12/21 02:12:45;;;;;;;;;35.50;29.50;;;;;;;;5063608;28;47088;-77
2021/12/21 02:15:10;;;;;;;;;27.00;24.75;;;;;;;;5071825;28;45228;-77
2021/12/21 02:20:38;;;;;;;;;23.25;22.00;;;;;;;;5071931;28;45519;-76
2021/12/21 02:23:18;;;;;;;;;30.25;29.25;;;;;;;;5063947;28;46962;-77
2021/12/21 02:30:43;;;;;;;;;33.75;29.25;;;;;;;;5062819;28;45136;-77
2021/12/21 02:33:09;;;;;;;;;30.50;30.50;;;;;;;;5073440;28;46253;-77
2021/12/21 02:35:35;;;;;;;;;34.50;30.25;;;;;;;;5046533;28;46246;-77
2021/12/21 02:38:00;;;;;;;;;25.00;22.50;;;;;;;;5084373;27;45366;-77
2021/12/21 02:40:25;;;;;;;;;30.00;29.00;;;;;;;;5061223;28;46642;-77
2021/12/21 02:42:50;;;;;;;;;24.00;23.50;;;;;;;;5073816;28;45354;-77
2021/12/21 02:45:16;;;;;;;;;22.50;22.25;;;;;;;;5072004;28;45463;-77
2021/12/21 02:47:41;;;;;;;;;29.50;24.75;;;;;;;;5072221;28;45299;-77
2021/12/21 02:50:06;;;;;;;;;21.75;20.50;;;;;;;;5046775;28;47591;-77
2021/12/21 02:52:33;;;;;;;;;22.75;21.50;;;;;;;;5061976;28;48433;-77
2021/12/21 02:54:59;;;;;;;;;19.75;19.00;;;;;;;;5071541;28;45413;-77
2021/12/21 02:57:24;;;;;;;;;23.50;22.25;;;;;;;;5055173;28;45467;-77
2021/12/21 02:59:49;;;;;;;;;23.00;22.00;;;;;;;;5070928;28;45552;-77
2021/12/21 03:02:14;;;;;;;;;26.00;23.25;;;;;;;;5069640;28;46351;-77
2021/12/21 03:04:43;;;;;;;;;24.75;22.00;;;;;;;;5060516;28;45788;-77
2021/12/21 03:07:54;;;;;;;;;21.50;19.25;;;;;;;;5079534;28;45386;-77
2021/12/21 03:10:11;;;;;;;;;20.50;20.50;;;;;;;;5080905;27;45346;-77
2021/12/21 03:15:17;;;;;;;;;24.50;18.50;;;;;;;;5082030;28;45343;-78
2021/12/21 03:17:42;;;;;;;;;22.00;18.25;;;;;;;;5064116;28;45409;-77
2021/12/21 03:20:08;;;;;;;;;20.50;20.00;;;;;;;;5082186;28;45532;-77
2021/12/21 03:22:33;;;;;;;;;19.25;19.25;;;;;;;;5081506;28;47290;-77
2021/12/21 03:24:58;;;;;;;;;24.00;23.75;;;;;;;;5081626;28;45216;-78
2021/12/21 03:27:23;;;;;;;;;21.75;20.50;;;;;;;;5082344;28;45228;-78
2021/12/21 03:29:48;;;;;;;;;23.25;23.00;;;;;;;;5081830;28;45317;-77
2021/12/21 03:32:14;;;;;;;;;25.50;24.25;;;;;;;;5063896;28;48599;-78
2021/12/21 03:34:39;;;;;;;;;23.25;23.25;;;;;;;;5063697;28;45329;-78
2021/12/21 03:37:11;;;;;;;;;22.25;22.25;;;;;;;;5087598;27;45160;-78
2021/12/21 03:39:36;;;;;;;;;20.25;18.00;;;;;;;;5083720;27;46474;-78
2021/12/21 03:42:01;;;;;;;;;19.50;19.25;;;;;;;;5102213;27;46010;-78
2021/12/21 03:44:27;;;;;;;;;22.00;20.50;;;;;;;;5102331;27;45338;-78
2021/12/21 03:46:55;;;;;;;;;19.50;17.00;;;;;;;;5102505;27;45370;-78
2021/12/21 03:49:52;;;;;;;;;16.50;16.50;;;;;;;;5083886;27;46281;-78
2021/12/21 03:52:16;;;;;;;;;21.50;17.75;;;;;;;;5101841;27;45156;-77
2021/12/21 03:54:44;;;;;;;;;20.50;19.00;;;;;;;;5102013;27;45228;-78
2021/12/21 03:57:09;;;;;;;;;17.00;16.75;;;;;;;;5083880;27;45392;-78
2021/12/21 03:59:35;;;;;;;;;16.75;16.75;;;;;;;;5102082;27;45495;-78
2021/12/21 04:02:00;;;;;;;;;20.25;18.75;;;;;;;;5101907;27;46378;-78
2021/12/21 04:04:25;;;;;;;;;20.00;17.50;;;;;;;;5102037;27;45341;-78
2021/12/21 04:06:52;;;;;;;;;17.50;15.25;;;;;;;;5102303;27;45378;-78
2021/12/21 04:09:17;;;;;;;;;17.75;17.75;;;;;;;;5101859;27;45381;-78
2021/12/21 04:11:43;;;;;;;;;17.25;17.25;;;;;;;;5101900;27;46352;-78
2021/12/21 04:14:09;;;;;;;;;25.75;19.75;;;;;;;;5101900;27;45262;-78
2021/12/21 04:16:35;;;;;;;;;17.00;16.25;;;;;;;;5083667;27;45232;-78
2021/12/21 04:19:00;;;;;;;;;16.00;15.25;;;;;;;;5083256;27;46957;-78
2021/12/21 04:21:25;;;;;;;;;18.50;16.25;;;;;;;;5101659;27;45234;-78
2021/12/21 04:23:51;;;;;;;;;23.00;20.25;;;;;;;;5083220;27;46239;-78
2021/12/21 04:26:16;;;;;;;;;20.50;18.25;;;;;;;;5101937;27;45144;-77
2021/12/21 04:28:43;;;;;;;;;20.75;19.25;;;;;;;;5101337;27;45178;-78
2021/12/21 04:31:10;;;;;;;;;22.50;19.75;;;;;;;;5101212;27;46516;-78
2021/12/21 04:33:36;;;;;;;;;20.50;18.50;;;;;;;;5101484;27;45322;-78
2021/12/21 04:36:02;;;;;;;;;17.00;17.00;;;;;;;;5101461;27;45516;-78
2021/12/21 04:38:32;;;;;;;;;22.50;20.50;;;;;;;;5083893;27;45324;-78
2021/12/21 04:41:08;;;;;;;;;17.75;16.50;;;;;;;;5080803;28;45314;-78
2021/12/21 04:43:33;;;;;;;;;17.75;17.25;;;;;;;;5062342;28;45620;-77
2021/12/21 04:45:59;;;;;;;;;22.25;19.00;;;;;;;;5080911;28;45379;-77
2021/12/21 04:48:24;;;;;;;;;16.25;16.25;;;;;;;;5080846;28;45295;-78
2021/12/21 04:50:49;;;;;;;;;23.75;20.00;;;;;;;;5080770;28;45337;-78
2021/12/21 04:53:14;;;;;;;;;15.50;15.50;;;;;;;;5080868;28;45798;-78
2021/12/21 04:55:40;;;;;;;;;15.75;15.75;;;;;;;;5080828;28;45300;-78
2021/12/21 04:58:05;;;;;;;;;20.75;18.25;;;;;;;;5080749;28;45353;-77
2021/12/21 05:00:30;;;;;;;;;19.00;15.50;;;;;;;;5080452;28;46147;-78
2021/12/21 05:02:56;;;;;;;;;17.25;15.25;;;;;;;;5080618;28;45407;-77
2021/12/21 05:05:21;;;;;;;;;16.00;16.00;;;;;;;;5080763;28;45354;-78
2021/12/21 05:07:51;;;;;;;;;16.75;16.75;;;;;;;;5062153;28;46504;-78
2021/12/21 05:10:18;;;;;;;;;18.75;18.75;;;;;;;;5080309;28;45307;-78
2021/12/21 05:12:43;;;;;;;;;21.00;19.25;;;;;;;;5062286;28;45897;-78
2021/12/21 05:15:09;;;;;;;;;22.50;20.75;;;;;;;;5080341;28;45384;-77
2021/12/21 05:17:34;;;;;;;;;18.50;16.25;;;;;;;;5080512;28;45383;-78
2021/12/21 05:19:59;;;;;;;;;21.25;18.00;;;;;;;;5080354;28;46708;-76
2021/12/21 05:22:25;;;;;;;;;20.00;17.75;;;;;;;;5080386;28;45297;-76
2021/12/21 05:24:53;;;;;;;;;27.25;20.75;;;;;;;;5080391;28;45311;-76
2021/12/21 05:27:18;;;;;;;;;20.75;16.50;;;;;;;;5080256;28;45526;-76
2021/12/21 05:29:43;;;;;;;;;21.75;20.00;;;;;;;;5079865;28;46148;-77
2021/12/21 05:32:08;;;;;;;;;18.00;16.75;;;;;;;;5080294;28;45457;-77
2021/12/21 05:34:34;;;;;;;;;20.50;20.00;;;;;;;;5062129;28;45443;-77
2021/12/21 05:37:00;;;;;;;;;15.50;15.50;;;;;;;;5084919;27;45271;-77
2021/12/21 05:39:37;;;;;;;;;18.25;17.25;;;;;;;;5100228;27;46256;-77
2021/12/21 05:42:05;;;;;;;;;19.50;17.75;;;;;;;;5082137;27;45247;-77
2021/12/21 05:44:30;;;;;;;;;15.00;14.00;;;;;;;;5081994;27;45296;-77
2021/12/21 05:46:55;;;;;;;;;19.00;17.25;;;;;;;;5099647;27;45285;-77
2021/12/21 05:49:20;;;;;;;;;18.75;16.75;;;;;;;;5100423;27;45332;-77
2021/12/21 05:51:46;;;;;;;;;21.75;18.25;;;;;;;;5100405;27;45286;-77
2021/12/21 05:54:12;;;;;;;;;19.50;19.50;;;;;;;;5100459;27;45349;-77
2021/12/21 05:56:37;;;;;;;;;19.25;16.25;;;;;;;;5100279;27;45421;-77
2021/12/21 05:59:03;;;;;;;;;20.00;19.00;;;;;;;;5100195;27;45357;-77
2021/12/21 06:01:29;;;;;;;;;17.75;15.50;;;;;;;;5100263;27;45245;-77
2021/12/21 06:03:54;;;;;;;;;14.25;11.00;;;;;;;;5100168;27;45209;-76
2021/12/21 06:06:19;;;;;;;;;19.00;18.50;;;;;;;;5099806;27;45583;-76
2021/12/21 06:08:47;;;;;;;;;19.00;18.50;;;;;;;;5081269;27;48088;-76
2021/12/21 06:11:14;;;;;;;;;17.75;15.50;;;;;;;;5100123;27;45153;-78
2021/12/21 06:22:43;;;;;;;;;20.25;20.00;;;;;;;;5099762;27;45391;-79
2021/12/21 06:26:53;;;;;;;;;20.00;19.00;;;;;;;;5099781;27;45291;-81
2021/12/21 06:29:18;;;;;;;;;21.00;17.50;;;;;;;;5081094;27;47264;-80
2021/12/21 06:31:43;;;;;;;;;26.25;21.00;;;;;;;;5099737;27;45389;-80
2021/12/21 06:34:09;;;;;;;;;17.50;15.75;;;;;;;;5081586;27;45520;-80
2021/12/21 06:36:34;;;;;;;;;20.50;14.50;;;;;;;;5098485;27;45341;-80
2021/12/21 06:38:59;;;;;;;;;23.75;21.25;;;;;;;;5079035;28;45361;-80
2021/12/21 06:41:25;;;;;;;;;20.25;17.00;;;;;;;;5079329;28;45291;-81
2021/12/21 06:43:50;;;;;;;;;20.25;18.75;;;;;;;;5079401;28;45699;-81
2021/12/21 06:46:43;;;;;;;;;23.50;20.00;;;;;;;;5060791;28;46352;-81
2021/12/21 06:51:51;;;;;;;;;21.75;19.75;;;;;;;;5079141;28;45394;-82
2021/12/21 06:54:17;;;;;;;;;21.50;20.00;;;;;;;;5060777;28;45206;-81
2021/12/21 06:56:42;;;;;;;;;17.75;16.00;;;;;;;;5079011;28;45512;-81
2021/12/21 06:59:07;;;;;;;;;19.50;16.00;;;;;;;;5080978;28;45424;-81
2021/12/21 07:01:33;;;;;;;;;20.50;19.00;;;;;;;;5082565;28;45377;-82
2021/12/21 07:03:59;;;;;;;;;20.00;20.00;;;;;;;;5064189;28;45668;-82
2021/12/21 07:06:24;;;;;;;;;20.25;18.00;;;;;;;;5082503;28;45274;-82
2021/12/21 07:09:09;;;;;;;;;17.00;17.00;;;;;;;;5082234;28;45941;-82
2021/12/21 07:19:29;;;;;;;;;20.75;17.75;;;;;;;;5082089;28;45390;-87
2021/12/21 07:21:55;;;;;;;;;19.50;17.25;;;;;;;;5082546;28;45283;-85
2021/12/21 07:24:20;;;;;;;;;20.00;19.75;;;;;;;;5082656;28;45219;-86
2021/12/21 07:26:46;;;;;;;;;20.25;19.25;;;;;;;;5082313;28;45344;-85
2021/12/21 07:29:11;;;;;;;;;20.00;19.00;;;;;;;;5082156;28;46460;-86
2021/12/21 07:31:36;;;;;;;;;26.25;21.75;;;;;;;;5066004;28;45382;-85
2021/12/21 07:34:02;;;;;;;;;24.50;20.50;;;;;;;;5044143;28;45551;-87
2021/12/21 07:36:30;;;;;;;;;23.50;19.25;;;;;;;;5044049;28;47082;-86
2021/12/21 07:38:55;;;;;;;;;23.00;22.75;;;;;;;;5062288;28;46317;-87
2021/12/21 07:41:20;;;;;;;;;24.25;21.75;;;;;;;;5061919;28;45228;-86
2021/12/21 07:43:46;;;;;;;;;21.75;17.50;;;;;;;;5043997;28;45263;-85
2021/12/21 07:46:11;;;;;;;;;18.50;16.50;;;;;;;;5043956;28;47306;-86
2021/12/21 07:48:37;;;;;;;;;21.00;19.00;;;;;;;;5044254;28;47990;-85
2021/12/21 07:51:03;;;;;;;;;23.75;21.25;;;;;;;;5062752;28;45342;-85
2021/12/21 07:53:28;;;;;;;;;22.75;20.50;;;;;;;;5064317;28;45584;-84
2021/12/21 07:55:53;;;;;;;;;24.00;22.25;;;;;;;;5047271;28;46351;-85
2021/12/21 07:58:18;;;;;;;;;19.25;19.25;;;;;;;;5061399;28;45339;-84
2021/12/21 08:00:44;;;;;;;;;28.50;23.00;;;;;;;;5061562;28;45340;-84
2021/12/21 08:03:09;;;;;;;;;18.50;17.00;;;;;;;;5061372;28;45776;-84
2021/12/21 08:05:35;;;;;;;;;27.00;24.75;;;;;;;;5043795;28;45956;-87
2021/12/21 08:08:11;;;;;;;;;23.75;20.75;;;;;;;;5065595;28;46528;-88
2021/12/21 08:10:50;;;;;;;;;28.75;24.00;;;;;;;;5050022;28;45719;-87
2021/12/21 08:13:15;;;;;;;;;30.00;24.50;;;;;;;;5066021;28;45223;-81
2021/12/21 08:15:40;;;;;;;;;29.50;28.75;;;;;;;;5047664;28;47225;-88
2021/12/21 08:18:06;;;;;;;;;22.75;22.00;;;;;;;;5046321;28;48304;-85
2021/12/21 08:20:31;;;;;;;;;28.25;25.50;;;;;;;;5052432;28;45292;-85
2021/12/21 08:22:57;;;;;;;;;27.50;25.50;;;;;;;;5054330;28;45246;-85
2021/12/21 08:25:26;;;;;;;;;24.25;21.25;;;;;;;;5059931;28;47198;-86
2021/12/21 08:27:52;;;;;;;;;28.25;25.75;;;;;;;;5059372;28;47634;-87
2021/12/21 08:30:17;;;;;;;;;27.50;25.00;;;;;;;;5053956;28;45975;-87
2021/12/21 08:32:42;;;;;;;;;25.75;23.75;;;;;;;;5077447;28;45314;-86
2021/12/21 08:35:08;;;;;;;;;38.00;37.25;;;;;;;;5063804;28;46121;-86
2021/12/21 08:37:34;;;;;;;;;29.00;26.25;;;;;;;;5083759;28;46278;-86
2021/12/21 08:40:00;;;;;;;;;26.75;26.25;;;;;;;;5082901;28;45290;-85
2021/12/21 08:42:26;;;;;;;;;26.00;25.00;;;;;;;;5064442;28;45220;-85
2021/12/21 08:44:51;;;;;;;;;22.75;22.75;;;;;;;;5065046;28;46099;-84
2021/12/21 08:47:16;;;;;;;;;28.75;27.25;;;;;;;;5068840;28;47249;-84
2021/12/21 08:49:42;;;;;;;;;22.75;16.50;;;;;;;;5083961;28;44818;-82
2021/12/21 08:52:07;;;;;;;;;24.50;23.75;;;;;;;;5059208;28;44780;-83
2021/12/21 08:54:32;;;;;;;;;28.75;24.00;;;;;;;;5078072;28;45523;-86
2021/12/21 08:56:57;;;;;;;;;28.25;23.75;;;;;;;;5058588;28;48480;-83
2021/12/21 08:59:23;;;;;;;;;23.50;23.50;;;;;;;;5079905;28;45539;-86
2021/12/21 09:01:50;;;;;;;;;25.75;24.50;;;;;;;;5074146;28;45295;-82
2021/12/21 09:04:18;;;;;;;;;25.25;23.00;;;;;;;;5061209;28;45457;-85
2021/12/21 09:06:43;;;;;;;;;25.50;23.25;;;;;;;;5061204;28;46994;-85
2021/12/21 09:09:08;;;;;;;;;28.75;25.50;;;;;;;;5062057;28;45394;-85
2021/12/21 09:11:35;;;;;;;;;26.00;21.50;;;;;;;;5059573;28;45316;-85
2021/12/21 09:14:00;;;;;;;;;26.50;23.25;;;;;;;;5062659;28;46135;-86
2021/12/21 09:16:25;;;;;;;;;22.25;20.75;;;;;;;;5059103;28;47122;-85
2021/12/21 09:18:50;;;;;;;;;25.50;25.00;;;;;;;;5067130;28;45307;-85
2021/12/21 09:21:16;;;;;;;;;27.50;25.50;;;;;;;;5066421;28;45566;-83
2021/12/21 09:23:41;;;;;;;;;26.50;22.25;;;;;;;;5081511;28;45918;-85
2021/12/21 09:26:06;;;;;;;;;24.00;21.00;;;;;;;;5069430;28;47928;-85
2021/12/21 09:28:31;;;;;;;;;25.00;20.75;;;;;;;;5065389;28;45623;-86
2021/12/21 09:30:57;;;;;;;;;28.25;25.00;;;;;;;;5063867;28;45252;-86
2021/12/21 09:33:22;;;;;;;;;27.50;25.25;;;;;;;;5062501;28;47207;-86
2021/12/21 09:35:49;;;;;;;;;19.50;16.00;;;;;;;;5062483;28;47133;-86
2021/12/21 09:38:14;;;;;;;;;27.75;27.00;;;;;;;;5080780;28;45309;-86
2021/12/21 09:40:40;;;;;;;;;26.25;25.50;;;;;;;;5064694;28;44760;-86
2021/12/21 09:43:09;;;;;;;;;23.00;22.50;;;;;;;;5083730;28;45452;-85
2021/12/21 09:45:34;;;;;;;;;46.50;38.00;;;;;;;;5071771;28;47318;-85
2021/12/21 09:48:00;;;;;;;;;34.00;31.00;;;;;;;;5041885;28;44949;-87
2021/12/21 09:50:25;;;;;;;;;23.25;21.75;;;;;;;;5060801;28;45533;-85
2021/12/21 09:52:51;;;;;;;;;18.25;18.25;;;;;;;;5062056;28;47168;-87
2021/12/21 09:55:20;;;;;;;;;41.50;36.50;;;;;;;;5065309;28;45392;-86
2021/12/21 09:57:46;;;;;;;;;39.00;37.00;;;;;;;;5076378;28;45275;-86
2021/12/21 10:00:13;;;;;;;;;23.00;21.25;;;;;;;;5067857;28;45332;-87
2021/12/21 10:02:38;;;;;;;;;22.50;20.00;;;;;;;;5062646;28;47349;-87
2021/12/21 10:05:06;;;;;;;;;21.25;21.25;;;;;;;;5063843;28;46978;-87
2021/12/21 10:07:32;;;;;;;;;26.25;25.00;;;;;;;;5063166;28;45410;-88
2021/12/21 10:10:03;;;;;;;;;27.75;23.75;;;;;;;;5080489;28;45148;-88
2021/12/21 10:12:29;;;;;;;;;24.25;23.50;;;;;;;;5081662;28;45421;-87
2021/12/21 10:15:09;;;;;;;;;24.50;23.25;;;;;;;;5063096;28;47382;-87
2021/12/21 10:17:35;;;;;;;;;26.00;25.25;;;;;;;;5079553;28;45351;-89
2021/12/21 10:20:08;;;;;;;;;26.00;26.00;;;;;;;;5080367;28;45283;-88
2021/12/21 10:22:33;;;;;;;;;23.50;22.00;;;;;;;;5080739;28;45383;-88
2021/12/21 10:24:59;;;;;;;;;24.25;22.50;;;;;;;;5058392;28;47240;-88
2021/12/21 10:27:25;;;;;;;;;22.50;21.75;;;;;;;;5042632;28;45420;-88
2021/12/21 10:29:58;;;;;;;;;31.50;24.25;;;;;;;;5063096;28;45473;-86
2021/12/21 10:32:25;;;;;;;;;28.75;28.75;;;;;;;;5062577;28;47377;-88
2021/12/21 10:34:51;;;;;;;;;32.00;27.75;;;;;;;;5081190;28;45488;-88
2021/12/21 10:37:26;;;;;;;;;27.25;26.75;;;;;;;;5044911;28;45393;-89
2021/12/21 10:40:04;;;;;;;;;23.75;21.50;;;;;;;;5065368;28;45539;-89
2021/12/21 10:42:29;;;;;;;;;27.50;27.00;;;;;;;;5069562;28;47470;-85
2021/12/21 10:45:01;;;;;;;;;31.00;24.25;;;;;;;;5062556;28;48148;-89
2021/12/21 10:47:27;;;;;;;;;27.50;25.00;;;;;;;;5062268;28;45813;-90
2021/12/21 10:49:52;;;;;;;;;23.25;21.25;;;;;;;;5065245;28;45277;-90
2021/12/21 10:52:20;;;;;;;;;29.00;27.50;;;;;;;;5070847;28;46062;-88
2021/12/21 10:54:47;;;;;;;;;26.25;26.25;;;;;;;;5065367;28;47100;-91
2021/12/21 10:57:17;;;;;;;;;24.75;24.75;;;;;;;;5064016;28;45304;-90
2021/12/21 10:59:45;;;;;;;;;20.25;20.25;;;;;;;;5063572;28;45310;-89
2021/12/21 11:02:18;;;;;;;;;20.50;19.50;;;;;;;;5055948;28;46069;-91
2021/12/21 11:04:46;;;;;;;;;21.75;18.00;;;;;;;;5063996;28;46545;-84
2021/12/21 11:07:29;;;;;;;;;28.00;26.00;;;;;;;;5052905;28;46123;-84
2021/12/21 11:09:58;;;;;;;;;22.75;22.75;;;;;;;;5058729;28;45252;-83
2021/12/21 11:12:25;;;;;;;;;10.50;9.50;;;;;;;;5062687;28;46495;-81
2021/12/21 11:14:50;;;;;;;;;27.00;23.00;;;;;;;;5069254;28;45328;-82
2021/12/21 11:17:16;;;;;;;;;28.75;24.50;;;;;;;;5073032;28;45537;-81
2021/12/21 11:19:41;;;;;;;;;26.00;23.50;;;;;;;;5070039;28;45477;-81
2021/12/21 11:22:07;;;;;;;;;19.75;17.75;;;;;;;;5060380;28;46201;-80
2021/12/21 11:24:35;;;;;;;;;21.75;19.00;;;;;;;;5066457;28;46369;-82
2021/12/21 11:27:02;;;;;;;;;27.50;23.00;;;;;;;;5072142;28;45181;-82
2021/12/21 11:29:30;;;;;;;;;20.75;20.75;;;;;;;;5072326;28;45497;-85
2021/12/21 11:31:57;;;;;;;;;23.75;22.00;;;;;;;;5074955;28;45580;-83
2021/12/21 11:34:31;;;;;;;;;28.50;26.25;;;;;;;;5063445;28;47510;-82
2021/12/21 11:39:41;;;;;;;;;19.00;19.00;;;;;;;;5075211;28;45442;-82
2021/12/21 11:42:08;;;;;;;;;20.00;16.75;;;;;;;;5062024;28;46816;-83
2021/12/21 11:44:40;;;;;;;;;20.75;20.75;;;;;;;;5067370;28;45856;-83
2021/12/21 11:47:09;;;;;;;;;19.25;18.00;;;;;;;;5063773;28;45333;-84
2021/12/21 11:49:40;;;;;;;;;28.25;25.25;;;;;;;;5061870;28;45478;-82
2021/12/21 11:52:07;;;;;;;;;23.50;23.50;;;;;;;;5070186;28;45453;-84
2021/12/21 11:54:41;;;;;;;;;24.00;20.50;;;;;;;;5063784;28;45331;-82
2021/12/21 11:57:06;;;;;;;;;24.75;22.25;;;;;;;;5070483;28;45436;-80
2021/12/21 11:59:31;;;;;;;;;29.50;26.00;;;;;;;;5059093;28;45376;-82
2021/12/21 12:02:01;;;;;;;;;19.25;19.25;;;;;;;;5067940;28;45286;-82
2021/12/21 12:04:26;;;;;;;;;46.50;38.25;;;;;;;;5073557;28;45331;-82
2021/12/21 12:06:52;;;;;;;;;28.00;26.75;;;;;;;;5071704;28;45275;-82
2021/12/21 12:09:29;;;;;;;;;22.25;20.50;;;;;;;;5062189;28;47416;-82
2021/12/21 12:12:04;;;;;;;;;22.00;22.00;;;;;;;;5068605;28;46241;-82
2021/12/21 12:14:30;;;;;;;;;23.50;22.50;;;;;;;;5070731;28;45445;-83
2021/12/21 12:16:57;;;;;;;;;25.00;22.00;;;;;;;;5070100;28;45392;-82
2021/12/21 12:19:27;;;;;;;;;24.00;21.50;;;;;;;;5070589;28;45347;-82
2021/12/21 12:21:55;;;;;;;;;16.75;14.25;;;;;;;;5062662;28;46251;-81
2021/12/21 12:24:21;;;;;;;;;21.50;19.25;;;;;;;;5074195;28;45435;-81
2021/12/21 12:26:56;;;;;;;;;19.50;16.50;;;;;;;;5070000;28;45437;-81
2021/12/21 12:29:21;;;;;;;;;21.75;21.75;;;;;;;;5069838;28;45425;-81
2021/12/21 12:32:00;;;;;;;;;24.25;21.25;;;;;;;;5070957;28;45374;-80
2021/12/21 12:34:27;;;;;;;;;28.25;24.75;;;;;;;;5060524;28;47234;-84
2021/12/21 12:36:54;;;;;;;;;25.00;21.50;;;;;;;;5058758;27;45844;-79
2021/12/21 12:39:29;;;;;;;;;22.00;21.00;;;;;;;;5058554;28;45342;-80
2021/12/21 12:41:59;;;;;;;;;26.00;23.00;;;;;;;;5051083;28;47435;-80
2021/12/21 12:44:25;;;;;;;;;23.00;23.00;;;;;;;;5058582;28;46227;-79
2021/12/21 12:46:52;;;;;;;;;28.25;23.00;;;;;;;;5071724;28;45273;-79
2021/12/21 12:49:22;;;;;;;;;25.00;24.00;;;;;;;;5059885;28;45619;-80
2021/12/21 12:51:48;;;;;;;;;21.75;19.25;;;;;;;;5069908;28;45358;-80
2021/12/21 12:54:17;;;;;;;;;27.00;22.50;;;;;;;;5071209;28;45351;-79
2021/12/21 12:56:42;;;;;;;;;32.25;26.25;;;;;;;;5061688;28;46192;-79
2021/12/21 12:59:07;;;;;;;;;21.75;21.75;;;;;;;;5058333;28;45504;-79
2021/12/21 13:01:39;;;;;;;;;27.00;24.50;;;;;;;;5051535;28;46238;-79
2021/12/21 13:04:09;;;;;;;;;29.25;27.25;;;;;;;;5050651;28;47085;-79
2021/12/21 13:06:34;;;;;;;;;24.75;22.75;;;;;;;;5070480;28;45399;-79
2021/12/21 13:09:00;;;;;;;;;21.50;19.00;;;;;;;;5061171;28;45430;-79
2021/12/21 13:11:27;;;;;;;;;27.00;24.75;;;;;;;;5069417;28;45729;-80
2021/12/21 13:13:57;;;;;;;;;23.00;18.75;;;;;;;;5067016;28;46418;-82
2021/12/21 13:16:23;;;;;;;;;24.00;21.25;;;;;;;;5061379;28;45275;-82
2021/12/21 13:18:53;;;;;;;;;22.75;20.25;;;;;;;;5059730;28;45338;-81
2021/12/21 13:21:19;;;;;;;;;21.75;20.50;;;;;;;;5060767;28;47337;-81
2021/12/21 13:23:47;;;;;;;;;31.75;28.50;;;;;;;;5057033;28;47074;-80
2021/12/21 13:26:12;;;;;;;;;22.50;21.25;;;;;;;;5051299;28;45340;-83
2021/12/21 13:28:45;;;;;;;;;17.25;15.00;;;;;;;;5060171;28;45401;-82
2021/12/21 13:31:10;;;;;;;;;25.50;23.25;;;;;;;;5051055;28;47734;-81
2021/12/21 13:33:39;;;;;;;;;22.75;22.25;;;;;;;;5058123;28;48433;-83
2021/12/21 13:36:05;;;;;;;;;25.50;25.50;;;;;;;;5050296;28;45323;-82
2021/12/21 13:38:31;;;;;;;;;23.00;22.50;;;;;;;;5059803;28;45489;-83
2021/12/21 13:40:59;;;;;;;;;30.50;27.50;;;;;;;;5065931;28;45577;-85
2021/12/21 13:43:24;;;;;;;;;24.00;20.50;;;;;;;;5069290;28;46332;-83
2021/12/21 13:45:56;;;;;;;;;26.25;23.25;;;;;;;;5068222;28;45138;-83
2021/12/21 13:48:21;;;;;;;;;25.75;25.75;;;;;;;;5050170;28;45304;-80
2021/12/21 13:50:46;;;;;;;;;21.25;19.50;;;;;;;;5076191;28;45431;-84
2021/12/21 13:53:11;;;;;;;;;22.00;21.25;;;;;;;;5067290;28;45699;-83
2021/12/21 13:55:40;;;;;;;;;27.00;26.00;;;;;;;;5051011;28;45902;-82
2021/12/21 13:58:07;;;;;;;;;32.25;29.50;;;;;;;;5061463;28;45375;-82
2021/12/21 14:00:35;;;;;;;;;23.00;21.33;;;;;;;;5058660;28;46356;-82
2021/12/21 14:06:09;;;;;;;;;23.67;21.67;;;;;;;;5038813;28;45326;-83
2021/12/21 14:08:34;;;;;;;;;20.67;20.67;;;;;;;;5059590;28;45313;-81
2021/12/21 14:11:00;;;;;;;;;26.00;25.67;;;;;;;;5068698;28;45457;-82
2021/12/21 14:13:27;;;;;;;;;29.25;26.25;;;;;;;;5051681;28;47354;-82
2021/12/21 14:15:52;;;;;;;;;30.00;27.25;;;;;;;;5056376;28;46454;-83
2021/12/21 14:18:22;;;;;;;;;25.50;23.75;;;;;;;;5046556;28;45418;-82
2021/12/21 14:20:49;;;;;;;;;27.50;26.50;;;;;;;;5051381;28;46003;-80
2021/12/21 14:23:18;;;;;;;;;26.75;26.75;;;;;;;;5069233;28;45965;-82
2021/12/21 14:25:43;;;;;;;;;27.50;24.50;;;;;;;;5060811;28;46124;-82
2021/12/21 14:28:09;;;;;;;;;27.00;24.67;;;;;;;;5061603;28;45476;-82
2021/12/21 14:30:34;;;;;;;;;23.75;23.00;;;;;;;;5059108;28;46010;-82
2021/12/21 14:33:07;;;;;;;;;25.25;24.75;;;;;;;;5057395;28;47811;-82
2021/12/21 14:35:33;;;;;;;;;28.75;25.75;;;;;;;;5057159;28;45740;-84
2021/12/21 14:38:09;;;;;;;;;25.00;22.25;;;;;;;;5074595;27;45410;-83
2021/12/21 14:40:45;;;;;;;;;26.00;26.00;;;;;;;;5076189;28;45326;-83
2021/12/21 14:43:23;;;;;;;;;30.25;25.25;;;;;;;;5069922;28;45570;-83
2021/12/21 14:45:48;;;;;;;;;29.75;27.00;;;;;;;;5069838;28;45392;-83
2021/12/21 14:48:15;;;;;;;;;38.00;35.50;;;;;;;;5060782;28;45313;-86
2021/12/21 14:51:16;;;;;;;;;39.25;34.50;;;;;5.29;71.79;101767.19;5127844;27;45384;-77
2021/12/21 14:53:47;;;;;;;;;30.50;27.75;;;;;5.18;72.21;101760.91;5118441;27;45292;-83
2021/12/21 14:56:29;;;;;;;;;30.50;26.25;;;;;4.99;71.63;101748.25;5115629;27;45360;-84
2021/12/21 14:59:00;;;;;;;;;28.25;26.50;;;;;4.90;71.72;101751.56;5115954;27;45317;-83
2021/12/21 15:01:36;;;;;;;;;28.50;25.25;;;;;4.85;72.18;101758.97;5117351;27;45326;-83
2021/12/21 15:04:11;;;;;;;;;29.75;26.25;;;;;4.70;72.14;101753.84;5097043;27;45346;-84
2021/12/21 15:06:37;;;;;;;;;31.50;28.50;;;;;4.77;72.26;101777.97;5107113;27;45355;-82
2021/12/21 15:09:02;;;;;;;;;27.00;25.50;;;;;4.68;72.67;101776.81;5113720;27;46319;-82
2021/12/21 15:11:27;;;;;;;;;30.50;29.00;;;;;4.49;72.41;101764.13;5103557;27;47502;-85
2021/12/21 15:13:53;;;;;;;;;29.75;27.00;;;;;4.45;72.10;101776.66;5118815;27;45220;-85